createdAt,value
2018-11-27T00:02:31.983Z,101417.19
2018-11-27T00:05:37.147Z,101418.86
2018-11-27T00:08:41.306Z,101422.56
2018-11-27T00:11:45.254Z,101425.95
2018-11-27T00:14:49.223Z,101427.22
2018-11-27T00:17:53.191Z,101434.36
2018-11-27T00:20:57.149Z,101431.89
2018-11-27T00:24:01.121Z,101438.61
2018-11-27T00:27:05.086Z,101446.55
2018-11-27T00:30:10.702Z,101439.82
2018-11-27T00:33:14.684Z,101439.39
2018-11-27T00:36:18.827Z,101444.50
2018-11-27T00:39:22.790Z,101441.89
2018-11-27T00:42:26.951Z,101444.78
2018-11-27T00:45:30.920Z,101449.39
2018-11-27T00:48:35.071Z,101448.55
2018-11-27T00:51:39.043Z,101451.49
2018-11-27T00:54:43.191Z,101456.56
2018-11-27T00:57:48.462Z,101454.05
2018-11-27T01:00:52.431Z,101463.71
2018-11-27T01:03:56.402Z,101459.07
2018-11-27T01:07:00.370Z,101462.00
2018-11-27T01:10:06.282Z,101462.48
2018-11-27T01:13:10.247Z,101462.03
2018-11-27T01:16:14.206Z,101468.83
2018-11-27T01:19:18.178Z,101467.14
2018-11-27T01:22:22.149Z,101461.66
2018-11-27T01:25:26.128Z,101472.17
2018-11-27T01:28:30.098Z,101473.03
2018-11-27T01:31:34.236Z,101478.51
2018-11-27T01:34:38.390Z,101476.89
2018-11-27T01:37:42.551Z,101478.94
2018-11-27T01:40:46.526Z,101475.55
2018-11-27T01:43:50.483Z,101475.55
2018-11-27T01:46:54.641Z,101475.53
2018-11-27T01:49:58.623Z,101473.84
2018-11-27T01:53:02.605Z,101478.92
2018-11-27T01:56:06.657Z,101477.25
2018-11-27T01:59:10.615Z,101479.33
2018-11-27T02:02:14.586Z,101487.73
2018-11-27T02:05:18.918Z,101487.77
2018-11-27T02:08:22.891Z,101490.28
2018-11-27T02:11:26.873Z,101486.94
2018-11-27T02:14:30.847Z,101489.89
2018-11-27T02:17:34.819Z,101485.65
2018-11-27T02:20:38.790Z,101490.30
2018-11-27T02:23:42.757Z,101486.53
2018-11-27T02:26:46.727Z,101490.36
2018-11-27T02:29:50.882Z,101486.19
2018-11-27T02:32:55.191Z,101484.06
2018-11-27T02:35:59.158Z,101479.85
2018-11-27T02:39:03.304Z,101483.64
2018-11-27T02:42:07.272Z,101483.22
2018-11-27T02:45:12.494Z,101489.55
2018-11-27T02:48:16.456Z,101495.01
2018-11-27T02:51:20.424Z,101487.87
2018-11-27T02:54:24.387Z,101493.36
2018-11-27T02:57:28.358Z,101493.34
2018-11-27T03:00:32.396Z,101495.50
2018-11-27T03:03:36.504Z,101499.72
2018-11-27T03:06:40.471Z,101492.14
2018-11-27T03:09:44.618Z,101506.06
2018-11-27T03:12:48.759Z,101501.84
2018-11-27T03:15:52.731Z,101512.80
2018-11-27T03:18:56.865Z,101512.03
2018-11-27T03:22:00.821Z,101504.55
2018-11-27T03:25:06.713Z,101506.62
2018-11-27T03:28:10.687Z,101512.52
2018-11-27T03:31:14.833Z,101505.88
2018-11-27T03:34:18.796Z,101513.05
2018-11-27T03:37:22.763Z,101515.97
2018-11-27T03:40:28.295Z,101526.09
2018-11-27T03:43:32.455Z,101530.31
2018-11-27T03:46:36.419Z,101527.00
2018-11-27T03:49:40.384Z,101529.89
2018-11-27T03:52:44.590Z,101534.61
2018-11-27T03:55:48.872Z,101530.81
2018-11-27T03:58:52.832Z,101538.37
2018-11-27T04:01:56.804Z,101532.48
2018-11-27T04:05:00.763Z,101534.60
2018-11-27T04:08:05.296Z,101541.34
2018-11-27T04:11:09.456Z,101537.98
2018-11-27T04:14:13.405Z,101540.06
2018-11-27T04:17:20.259Z,101535.45
2018-11-27T04:20:24.276Z,101542.20
2018-11-27T04:23:28.575Z,101538.39
2018-11-27T04:26:32.543Z,101546.03
2018-11-27T04:29:36.501Z,101547.30
2018-11-27T04:32:40.725Z,101545.61
2018-11-27T04:35:44.699Z,101548.14
2018-11-27T04:38:48.846Z,101546.89
2018-11-27T04:41:52.803Z,101554.05
2018-11-27T04:44:56.958Z,101546.89
2018-11-27T04:48:01.131Z,101550.26
2018-11-27T04:51:05.631Z,101554.95
2018-11-27T04:54:09.594Z,101561.70
2018-11-27T04:57:13.550Z,101560.45
2018-11-27T05:00:24.491Z,101561.27
2018-11-27T05:03:28.630Z,101565.51
2018-11-27T05:06:32.619Z,101568.03
2018-11-27T05:09:36.581Z,101569.30
2018-11-27T05:12:41.360Z,101575.26
2018-11-27T05:15:45.614Z,101576.16
2018-11-27T05:18:49.579Z,101580.73
2018-11-27T05:21:53.554Z,101587.48
2018-11-27T05:24:57.515Z,101587.53
2018-11-27T05:28:01.484Z,101590.02
2018-11-27T05:31:05.662Z,101595.13
2018-11-27T05:34:09.643Z,101593.86
2018-11-27T05:37:13.610Z,101601.45
2018-11-27T05:40:18.726Z,101599.00
2018-11-27T05:43:22.687Z,101600.25
2018-11-27T05:46:26.656Z,101593.50
2018-11-27T05:49:30.627Z,101601.15
2018-11-27T05:52:34.595Z,101604.06
2018-11-27T05:55:38.559Z,101606.20
2018-11-27T05:58:42.515Z,101607.43
2018-11-27T06:01:46.495Z,101604.13
2018-11-27T06:04:50.467Z,101608.75
2018-11-27T06:07:54.907Z,101609.66
2018-11-27T06:10:59.023Z,101609.70
2018-11-27T06:14:02.993Z,101613.88
2018-11-27T06:17:07.147Z,101625.72
2018-11-27T06:20:18.953Z,101627.80
2018-11-27T06:23:22.907Z,101635.44
2018-11-27T06:26:26.870Z,101640.06
2018-11-27T06:29:30.831Z,101631.16
2018-11-27T06:32:34.849Z,101636.70
2018-11-27T06:35:41.338Z,101641.81
2018-11-27T06:38:45.285Z,101639.70
2018-11-27T06:41:49.254Z,101644.35
2018-11-27T06:44:53.214Z,101644.72
2018-11-27T06:47:57.519Z,101650.20
2018-11-27T06:51:01.509Z,101647.23
2018-11-27T06:54:06.642Z,101653.14
2018-11-27T06:57:10.610Z,101654.42
2018-11-27T07:00:23.575Z,101658.62
2018-11-27T07:03:27.537Z,101663.67
2018-11-27T07:06:31.490Z,101673.80
2018-11-27T07:09:35.650Z,101680.61
2018-11-27T07:12:39.618Z,101691.16
2018-11-27T07:15:43.598Z,101699.17
2018-11-27T07:18:47.607Z,101699.66
2018-11-27T07:21:51.570Z,101701.34
2018-11-27T07:24:55.546Z,101706.34
2018-11-27T07:27:59.530Z,101711.47
2018-11-27T07:31:03.495Z,101716.10
2018-11-27T07:34:07.473Z,101722.44
2018-11-27T07:37:11.430Z,101724.14
2018-11-27T07:40:17.319Z,101723.71
2018-11-27T07:43:21.619Z,101732.14
2018-11-27T07:46:25.586Z,101728.70
2018-11-27T07:49:29.543Z,101730.81
2018-11-27T07:52:33.518Z,101738.83
2018-11-27T07:55:37.507Z,101740.52
2018-11-27T07:58:41.674Z,101740.09
2018-11-27T08:01:45.647Z,101749.37
2018-11-27T08:04:49.618Z,101745.95
2018-11-27T08:07:54.579Z,101741.77
2018-11-27T08:10:58.543Z,101740.92
2018-11-27T08:14:02.502Z,101745.94
2018-11-27T08:17:06.714Z,101749.78
2018-11-27T08:20:14.098Z,101751.89
2018-11-27T08:23:18.066Z,101754.00
2018-11-27T08:26:22.026Z,101764.55
2018-11-27T08:29:25.994Z,101768.77
2018-11-27T08:32:29.967Z,101770.04
2018-11-27T08:35:34.290Z,101771.72
2018-11-27T08:38:38.254Z,101773.41
2018-11-27T08:41:42.214Z,101780.16
2018-11-27T08:44:46.191Z,101777.62
2018-11-27T08:47:51.063Z,101784.81
2018-11-27T08:50:55.214Z,101785.64
2018-11-27T08:53:59.175Z,101791.13
2018-11-27T08:57:03.139Z,101790.72
2018-11-27T09:00:24.353Z,101791.97
2018-11-27T09:03:28.331Z,101799.16
2018-11-27T09:06:32.316Z,101802.52
2018-11-27T09:09:36.287Z,101819.47
2018-11-27T09:12:40.646Z,101818.62
2018-11-27T09:15:44.616Z,101824.98
2018-11-27T09:18:48.590Z,101824.97
2018-11-27T09:21:52.571Z,101836.00
2018-11-27T09:24:56.540Z,101840.23
2018-11-27T09:28:00.506Z,101842.77
2018-11-27T09:31:05.196Z,101850.00
2018-11-27T09:34:09.175Z,101850.45
2018-11-27T09:37:13.122Z,101856.41
2018-11-27T09:40:18.640Z,101856.43
2018-11-27T09:43:22.790Z,101863.59
2018-11-27T09:46:26.763Z,101861.91
2018-11-27T09:49:30.721Z,101857.28
2018-11-27T09:52:34.700Z,101856.02
2018-11-27T09:55:38.674Z,101858.16
2018-11-27T09:58:42.826Z,101868.73
2018-11-27T10:01:46.804Z,101869.16
2018-11-27T10:04:50.774Z,101876.34
2018-11-27T10:07:54.748Z,101875.08
2018-11-27T10:10:58.693Z,101873.02
2018-11-27T10:14:02.667Z,101870.91
2018-11-27T10:17:06.634Z,101865.41
2018-11-27T10:20:13.623Z,101865.00
2018-11-27T10:23:17.775Z,101863.33
2018-11-27T10:26:21.910Z,101858.25
2018-11-27T10:29:25.882Z,101857.45
2018-11-27T10:32:29.902Z,101852.39
2018-11-27T10:35:42.915Z,101849.02
2018-11-27T10:38:47.049Z,101842.69
2018-11-27T10:41:51.023Z,101845.67
2018-11-27T10:44:55.037Z,101847.37
2018-11-27T10:47:59.178Z,101844.84
2018-11-27T10:51:03.150Z,101840.66
2018-11-27T10:54:07.462Z,101836.86
2018-11-27T10:57:11.439Z,101839.83
2018-11-27T11:00:27.631Z,101843.23
2018-11-27T11:03:38.039Z,101841.55
2018-11-27T11:06:41.998Z,101848.73
2018-11-27T11:09:45.971Z,101845.35
2018-11-27T11:12:49.941Z,101850.00
2018-11-27T11:15:53.906Z,101842.01
2018-11-27T11:18:58.123Z,101839.89
2018-11-27T11:22:02.083Z,101847.47
2018-11-27T11:25:10.301Z,101845.78
2018-11-27T11:28:14.274Z,101841.97
2018-11-27T11:31:18.263Z,101847.04
2018-11-27T11:34:22.222Z,101853.80
2018-11-27T11:37:26.370Z,101858.03
2018-11-27T11:40:30.329Z,101861.41
2018-11-27T11:43:34.333Z,101863.10
2018-11-27T11:46:38.303Z,101862.26
2018-11-27T11:49:42.278Z,101864.41
2018-11-27T11:52:47.644Z,101868.64
2018-11-27T11:55:51.623Z,101867.79
2018-11-27T11:58:55.596Z,101866.10
2018-11-27T12:01:59.550Z,101869.91
2018-11-27T12:05:03.510Z,101872.47
2018-11-27T12:08:08.565Z,101872.05
2018-11-27T12:11:12.534Z,101872.93
2018-11-27T12:14:16.503Z,101873.35
2018-11-27T12:17:20.468Z,101876.73
2018-11-27T12:20:24.448Z,101875.89
2018-11-27T12:23:28.408Z,101872.51
2018-11-27T12:26:32.559Z,101880.54
2018-11-27T12:29:36.711Z,101873.35
2018-11-27T12:32:40.698Z,101873.39
2018-11-27T12:35:44.657Z,101873.80
2018-11-27T12:38:48.641Z,101873.38
2018-11-27T12:41:52.606Z,101874.65
2018-11-27T12:44:56.599Z,101875.09
2018-11-27T12:48:01.756Z,101870.03
2018-11-27T12:51:07.017Z,101862.80
2018-11-27T12:54:11.175Z,101863.67
2018-11-27T12:57:15.147Z,101857.75
2018-11-27T13:00:20.439Z,101864.52
2018-11-27T13:03:24.587Z,101869.17
2018-11-27T13:06:28.900Z,101866.63
2018-11-27T13:09:33.038Z,101861.16
2018-11-27T13:12:37.011Z,101862.42
2018-11-27T13:15:41.917Z,101870.88
2018-11-27T13:18:45.891Z,101874.69
2018-11-27T13:21:49.862Z,101884.84
2018-11-27T13:24:53.835Z,101884.84
2018-11-27T13:27:57.806Z,101880.19
2018-11-27T13:31:06.176Z,101879.77
2018-11-27T13:34:12.842Z,101880.63
2018-11-27T13:37:16.816Z,101882.33
2018-11-27T13:40:21.031Z,101893.75
2018-11-27T13:43:27.138Z,101886.13
2018-11-27T13:46:31.291Z,101885.70
2018-11-27T13:49:35.266Z,101896.70
2018-11-27T13:52:39.426Z,101900.08
2018-11-27T13:55:43.420Z,101892.47
2018-11-27T13:58:47.570Z,101895.01
2018-11-27T14:01:51.713Z,101900.52
2018-11-27T14:04:55.671Z,101901.78
2018-11-27T14:07:59.630Z,101899.24
2018-11-27T14:11:03.614Z,101904.31
2018-11-27T14:14:08.085Z,101899.67
2018-11-27T14:17:12.076Z,101897.13
2018-11-27T14:20:16.375Z,101896.28
2018-11-27T14:23:20.522Z,101903.05
2018-11-27T14:26:24.507Z,101899.25
2018-11-27T14:29:28.495Z,101903.90
2018-11-27T14:32:32.454Z,101898.41
2018-11-27T14:35:36.419Z,101900.95
2018-11-27T14:38:40.414Z,101912.36
2018-11-27T14:41:44.387Z,101913.61
2018-11-27T14:44:48.367Z,101917.02
2018-11-27T14:47:54.769Z,101919.56
2018-11-27T14:50:58.739Z,101916.99
2018-11-27T14:54:02.758Z,101916.14
2018-11-27T14:57:07.067Z,101913.61
2018-11-27T15:00:18.898Z,101923.34
2018-11-27T15:03:23.034Z,101923.77
2018-11-27T15:06:27.014Z,101919.11
2018-11-27T15:09:30.985Z,101914.00
2018-11-27T15:12:34.945Z,101917.39
2018-11-27T15:15:38.923Z,101919.08
2018-11-27T15:18:43.244Z,101918.23
2018-11-27T15:21:47.223Z,101922.05
2018-11-27T15:24:51.371Z,101921.20
2018-11-27T15:27:55.341Z,101926.27
2018-11-27T15:30:59.499Z,101922.47
2018-11-27T15:34:03.478Z,101925.42
2018-11-27T15:37:07.438Z,101928.39
2018-11-27T15:40:17.286Z,101927.94
2018-11-27T15:43:21.247Z,101925.82
2018-11-27T15:46:25.210Z,101933.47
2018-11-27T15:49:29.182Z,101931.73
2018-11-27T15:52:33.170Z,101932.59
2018-11-27T15:55:39.064Z,101933.86
2018-11-27T15:58:43.027Z,101938.47
2018-11-27T16:01:47.034Z,101942.27
2018-11-27T16:04:51.361Z,101937.20
2018-11-27T16:07:55.326Z,101942.70
2018-11-27T16:10:59.302Z,101941.00
2018-11-27T16:14:03.613Z,101949.00
2018-11-27T16:17:07.947Z,101942.23
2018-11-27T16:20:14.988Z,101937.58
2018-11-27T16:23:18.111Z,101938.85
2018-11-27T16:26:22.259Z,101944.77
2018-11-27T16:29:26.246Z,101947.30
2018-11-27T16:32:30.218Z,101953.63
2018-11-27T16:35:34.196Z,101960.82
2018-11-27T16:38:40.166Z,101956.98
2018-11-27T16:41:42.186Z,101962.05
2018-11-27T16:44:46.134Z,101956.55
2018-11-27T16:47:50.520Z,101961.20
2018-11-27T16:50:54.478Z,101962.47
2018-11-27T16:53:58.462Z,101962.46
2018-11-27T16:57:02.466Z,101969.23
2018-11-27T17:00:13.272Z,101977.26
2018-11-27T17:03:17.239Z,101979.37
2018-11-27T17:06:21.217Z,101975.10
2018-11-27T17:09:25.365Z,101976.83
2018-11-27T17:12:29.338Z,101974.67
2018-11-27T17:15:33.311Z,101973.41
2018-11-27T17:18:37.308Z,101981.05
2018-11-27T17:21:41.278Z,101990.30
2018-11-27T17:24:45.438Z,101987.34
2018-11-27T17:27:49.951Z,101990.29
2018-11-27T17:30:59.996Z,101994.52
2018-11-27T17:34:09.958Z,101999.17
2018-11-27T17:37:13.938Z,101995.78
2018-11-27T17:40:17.918Z,101994.05
2018-11-27T17:43:21.894Z,101999.17
2018-11-27T17:46:25.867Z,101998.75
2018-11-27T17:49:29.866Z,102002.55
2018-11-27T17:52:33.867Z,102000.81
2018-11-27T17:55:37.805Z,102003.34
2018-11-27T17:58:41.780Z,102012.64
2018-11-27T18:01:46.108Z,102016.01
2018-11-27T18:04:50.083Z,102007.14
2018-11-27T18:07:54.060Z,102007.99
2018-11-27T18:10:58.220Z,102013.46
2018-11-27T18:14:02.289Z,102015.58
2018-11-27T18:17:06.225Z,102017.27
2018-11-27T18:20:11.177Z,102017.26
2018-11-27T18:23:15.320Z,102020.22
2018-11-27T18:26:19.278Z,102031.62
2018-11-27T18:29:23.287Z,102028.67
2018-11-27T18:32:27.260Z,102035.86
2018-11-27T18:35:31.218Z,102039.66
2018-11-27T18:38:35.225Z,102042.20
2018-11-27T18:41:39.462Z,102038.80
2018-11-27T18:44:43.452Z,102041.30
2018-11-27T18:47:47.511Z,102041.28
2018-11-27T18:50:51.473Z,102045.52
2018-11-27T18:53:55.423Z,102049.73
2018-11-27T19:00:24.099Z,102042.97
2018-11-27T19:03:28.096Z,102045.50
2018-11-27T19:06:32.073Z,102048.88
2018-11-27T19:09:36.058Z,102063.64
2018-11-27T19:12:40.426Z,102056.05
2018-11-27T19:15:45.966Z,102060.70
2018-11-27T19:18:50.066Z,102065.00
2018-11-27T19:21:54.052Z,102061.13
2018-11-27T19:24:58.063Z,102066.63
2018-11-27T19:28:02.373Z,102063.66
2018-11-27T19:31:06.122Z,102064.09
2018-11-27T19:34:10.106Z,102064.50
2018-11-27T19:37:14.103Z,102069.14
2018-11-27T19:40:18.895Z,102064.06
2018-11-27T19:43:22.876Z,102061.91
2018-11-27T19:46:26.849Z,102057.73
2018-11-27T19:49:31.158Z,102065.70
2018-11-27T19:52:35.176Z,102072.52
2018-11-27T19:55:39.681Z,102082.18
2018-11-27T19:58:50.197Z,102084.30
2018-11-27T20:01:54.211Z,102091.05
2018-11-27T20:04:58.180Z,102099.55
2018-11-27T20:08:02.326Z,102108.80
2018-11-27T20:11:06.489Z,102109.27
2018-11-27T20:14:10.475Z,102107.16
2018-11-27T20:17:14.524Z,102112.66
2018-11-27T20:20:19.590Z,102111.75
2018-11-27T20:23:23.571Z,102116.81
2018-11-27T20:26:27.558Z,102122.72
2018-11-27T20:29:31.875Z,102121.86
2018-11-27T20:32:35.866Z,102126.06
2018-11-27T20:35:40.026Z,102125.59
2018-11-27T20:38:44.117Z,102129.45
2018-11-27T20:41:48.075Z,102126.94
2018-11-27T20:44:52.058Z,102127.38
2018-11-27T20:47:58.170Z,102131.16
2018-11-27T20:51:02.192Z,102129.45
2018-11-27T20:54:06.192Z,102123.94
2018-11-27T20:57:10.155Z,102115.45
2018-11-27T21:00:17.027Z,102118.82
2018-11-27T21:03:20.330Z,102111.63
2018-11-27T21:06:24.718Z,102113.31
2018-11-27T21:09:28.712Z,102108.27
2018-11-27T21:12:32.662Z,102099.86
2018-11-27T21:15:37.482Z,102096.84
2018-11-27T21:18:48.111Z,102099.80
2018-11-27T21:21:52.082Z,102096.42
2018-11-27T21:24:56.230Z,102086.27
2018-11-27T21:28:06.336Z,102088.80
2018-11-27T21:31:10.595Z,102098.50
2018-11-27T21:34:14.569Z,102099.72
2018-11-27T21:37:18.869Z,102111.50
2018-11-27T21:40:23.202Z,102115.31
2018-11-27T21:43:27.183Z,102112.33
2018-11-27T21:46:31.471Z,102116.17
2018-11-27T21:49:35.623Z,102112.33
2018-11-27T21:52:40.188Z,102104.26
2018-11-27T21:55:44.153Z,102095.81
2018-11-27T21:58:48.125Z,102110.20
2018-11-27T22:01:52.090Z,102113.52
2018-11-27T22:04:56.091Z,102111.84
2018-11-27T22:08:00.057Z,102110.98
2018-11-27T22:11:04.218Z,102112.23
2018-11-27T22:14:08.183Z,102113.05
2018-11-27T22:17:12.155Z,102111.72
2018-11-27T22:20:21.071Z,102115.09
2018-11-27T22:23:20.072Z,102117.63
2018-11-27T22:26:24.042Z,102110.39
2018-11-27T22:29:28.003Z,102103.23
2018-11-27T22:32:31.966Z,102106.12
2018-11-27T22:35:35.921Z,102112.51
2018-11-27T22:38:40.222Z,102112.86
2018-11-27T22:41:44.489Z,102114.87
2018-11-27T22:44:48.705Z,102109.33
2018-11-27T22:47:52.863Z,102115.62
2018-11-27T22:50:56.831Z,102118.47
2018-11-27T22:54:00.787Z,102121.83
2018-11-27T22:57:04.767Z,102124.36
2018-11-27T23:00:19.881Z,102123.00
2018-11-27T23:03:23.838Z,102117.37
2018-11-27T23:06:28.136Z,102119.88
2018-11-27T23:09:32.287Z,102117.34
2018-11-27T23:12:36.244Z,102108.02
2018-11-27T23:15:40.454Z,102108.67
2018-11-27T23:18:44.744Z,102112.88
2018-11-27T23:21:48.711Z,102118.34
2018-11-27T23:24:52.679Z,102114.09
2018-11-27T23:27:56.651Z,102122.84
2018-11-27T23:31:00.794Z,102117.19
2018-11-27T23:34:04.754Z,102117.92
2018-11-27T23:37:08.723Z,102112.73
2018-11-27T23:40:13.846Z,102116.93
2018-11-27T23:43:17.799Z,102116.08
2018-11-27T23:46:21.758Z,102121.00
2018-11-27T23:49:25.720Z,102125.34
2018-11-27T23:52:29.695Z,102117.21
2018-11-27T23:55:33.650Z,102114.14
2018-11-27T23:58:37.724Z,102118.67
